Smith Reynolds Airport
KINT : now visible

Airfield :











YOU CAN JOIN US ON...

 
LOGIN :

Register | Disclaimer

   EN    FR    IT 

 









Legend :    VFR   Marginal VFR   IFR   Intensive IFR   Very Intensive IFR
Visi :
Ceiling :
>= 8 km
>= 3000ft
5 to 8 km
1000 to 3000 ft
1500m to 5 km
500 to 1000 ft
800 to 1500m
200 to 500 ft
< 800m
< 200 ft
Symbols :   Thunderstorms  Fog  Heavy snow  Heavy precipitations  Wind > 20 kt







- Airport Elevation : 969 ft
- IATA code : INT


KINT - Smith Reynolds

CURRENT METAR :
  • 180954Z AUTO 24003KT 10SM CLR 23/21 A2999 RMK AO2 SLP142 T02330206

EXPIRED METARs :
  • 180854Z AUTO VRB03KT 10SM FEW060 23/20 A3000 RMK AO2 SLP144 T02330200 55005
  • 180754Z AUTO 00000KT 10SM CLR 24/20 A2999 RMK AO2 SLP143 T02390200

TAF KINT
Valid from the 18 at 06:00 until the 19 at 06:00 UTC


180537Z 1806/1906 22005KT P6SM BKN250
FM181600 25011KT P6SM SCT060
KZTL FIR / North America



MET'MAP, your aeronautical weather chart ! - Copyright ORBIFLY December 2007 - Disclaimer

ORBIFLY MET'MAP TEAM :

Programming & Development : Alexandra Zaïnal
Concept & Development : Baudouin d'Aumeries
Co-Development & Prog : Marc-Olivier Méhu
Technical & hardware support : Manuel Goepfert

Contact : metmap@orbifly.com




SOURCES & CREDITS :

   NOAA       Earth
Advisory